createdAt,value
2017-04-17T00:00:14.147Z,926.18
2017-04-17T00:00:33.443Z,926.18
2017-04-17T00:00:52.752Z,926.19
2017-04-17T00:01:12.072Z,926.16
2017-04-17T00:01:31.367Z,926.12
2017-04-17T00:01:50.634Z,926.15
2017-04-17T00:02:09.564Z,926.16
2017-04-17T00:02:28.836Z,926.15
2017-04-17T00:02:48.119Z,926.12
2017-04-17T00:03:07.401Z,926.12
2017-04-17T00:03:26.180Z,926.14
2017-04-17T00:03:44.999Z,926.12
2017-04-17T00:04:04.253Z,926.11
2017-04-17T00:04:23.378Z,926.1
2017-04-17T00:04:42.134Z,926.15
2017-04-17T00:05:01.423Z,926.12
2017-04-17T00:05:20.691Z,926.08
2017-04-17T00:05:39.958Z,926.09
2017-04-17T00:05:59.220Z,926.07
2017-04-17T00:06:18.484Z,926.06
2017-04-17T00:06:37.895Z,926.06
2017-04-17T00:06:57.151Z,926.08
2017-04-17T00:07:16.383Z,926.06
2017-04-17T00:07:35.681Z,926.07
2017-04-17T00:07:54.539Z,926.05
2017-04-17T00:08:13.888Z,926.09
2017-04-17T00:08:33.147Z,926.1
2017-04-17T00:08:52.523Z,926.13
2017-04-17T00:09:11.752Z,926.14
2017-04-17T00:09:31.007Z,926.15
2017-04-17T00:09:50.323Z,926.14
2017-04-17T00:10:09.619Z,926.13
2017-04-17T00:10:28.874Z,926.16
2017-04-17T00:10:48.138Z,926.11
2017-04-17T00:11:07.641Z,926.15
2017-04-17T00:11:27.015Z,926.2
2017-04-17T00:11:46.299Z,926.2
2017-04-17T00:12:05.742Z,926.17
2017-04-17T00:12:25.144Z,926.15
2017-04-17T00:12:44.570Z,926.12
2017-04-17T00:13:03.946Z,926.13
2017-04-17T00:13:23.278Z,926.13
2017-04-17T00:13:42.555Z,926.17
2017-04-17T00:14:01.793Z,926.13
2017-04-17T00:14:22.602Z,926.16
2017-04-17T00:14:41.867Z,926.18
2017-04-17T00:15:01.204Z,926.18
2017-04-17T00:15:19.452Z,926.17
2017-04-17T00:15:38.741Z,926.2
2017-04-17T00:15:57.508Z,926.18
2017-04-17T00:16:16.817Z,926.2
2017-04-17T00:16:36.108Z,926.18
2017-04-17T00:16:55.414Z,926.21
2017-04-17T00:17:14.759Z,926.25
2017-04-17T00:17:34.022Z,926.23
2017-04-17T00:17:53.297Z,926.24
2017-04-17T00:18:11.686Z,926.25
2017-04-17T00:18:30.508Z,926.25
2017-04-17T00:18:49.823Z,926.24
2017-04-17T00:19:09.131Z,926.27
2017-04-17T00:19:28.463Z,926.28
2017-04-17T00:19:47.738Z,926.27
2017-04-17T00:20:07.061Z,926.3
2017-04-17T00:20:25.828Z,926.27
2017-04-17T00:20:45.158Z,926.25
2017-04-17T00:21:04.447Z,926.27
2017-04-17T00:21:23.910Z,926.26
2017-04-17T00:21:43.200Z,926.27
2017-04-17T00:22:02.481Z,926.26
2017-04-17T00:22:21.815Z,926.25
2017-04-17T00:22:41.057Z,926.24
2017-04-17T00:23:00.542Z,926.28
2017-04-17T00:23:19.328Z,926.2
2017-04-17T00:23:38.613Z,926.2
2017-04-17T00:23:57.915Z,926.2
2017-04-17T00:24:17.177Z,926.2
2017-04-17T00:24:36.446Z,926.2
2017-04-17T00:24:55.211Z,926.23
2017-04-17T00:25:14.487Z,926.27
2017-04-17T00:25:33.757Z,926.26
2017-04-17T00:25:53.044Z,926.2
2017-04-17T00:26:11.788Z,926.19
2017-04-17T00:26:31.038Z,926.14
2017-04-17T00:26:50.393Z,926.19
2017-04-17T00:27:09.622Z,926.19
2017-04-17T00:27:28.904Z,926.15
2017-04-17T00:27:48.178Z,926.18
2017-04-17T00:28:07.442Z,926.22
2017-04-17T00:28:26.683Z,926.17
2017-04-17T00:28:46.127Z,926.19
2017-04-17T00:29:05.342Z,926.22
2017-04-17T00:29:23.622Z,926.2
2017-04-17T00:29:42.966Z,926.22
2017-04-17T00:30:02.348Z,926.21
2017-04-17T00:30:21.320Z,926.21
2017-04-17T00:30:40.619Z,926.26
2017-04-17T00:30:59.884Z,926.23
2017-04-17T00:31:21.778Z,926.25
2017-04-17T00:31:41.047Z,926.25
2017-04-17T00:32:00.535Z,926.29
2017-04-17T00:32:19.322Z,926.29
2017-04-17T00:32:38.610Z,926.3
2017-04-17T00:32:57.898Z,926.26
2017-04-17T00:33:17.170Z,926.24
2017-04-17T00:33:36.446Z,926.22
2017-04-17T00:33:55.735Z,926.28
2017-04-17T00:34:14.468Z,926.28
2017-04-17T00:34:33.848Z,926.27
2017-04-17T00:34:53.158Z,926.28
2017-04-17T00:35:11.963Z,926.31
2017-04-17T00:35:31.225Z,926.24
2017-04-17T00:35:50.527Z,926.25
2017-04-17T00:36:09.800Z,926.24
2017-04-17T00:36:29.114Z,926.21
2017-04-17T00:36:48.388Z,926.23
2017-04-17T00:37:07.648Z,926.26
2017-04-17T00:37:26.867Z,926.26
2017-04-17T00:37:46.102Z,926.25
2017-04-17T00:38:05.356Z,926.24
2017-04-17T00:38:24.095Z,926.2
2017-04-17T00:38:43.380Z,926.23
2017-04-17T00:39:02.662Z,926.24
2017-04-17T00:39:21.951Z,926.22
2017-04-17T00:39:41.217Z,926.25
2017-04-17T00:40:00.536Z,926.22
2017-04-17T00:40:19.779Z,926.18
2017-04-17T00:40:39.022Z,926.22
2017-04-17T00:40:57.761Z,926.24
2017-04-17T00:41:17.023Z,926.21
2017-04-17T00:41:36.336Z,926.23
2017-04-17T00:41:55.708Z,926.22
2017-04-17T00:42:14.947Z,926.23
2017-04-17T00:42:34.241Z,926.24
2017-04-17T00:42:53.023Z,926.23
2017-04-17T00:43:12.290Z,926.21
2017-04-17T00:43:31.559Z,926.22
2017-04-17T00:43:50.648Z,926.23
2017-04-17T00:44:09.902Z,926.24
2017-04-17T00:44:29.166Z,926.21
2017-04-17T00:44:47.445Z,926.27
2017-04-17T00:45:06.851Z,926.22
2017-04-17T00:45:26.129Z,926.24
2017-04-17T00:45:44.865Z,926.23
2017-04-17T00:46:04.185Z,926.22
2017-04-17T00:46:22.920Z,926.21
2017-04-17T00:46:41.696Z,926.24
2017-04-17T00:47:00.992Z,926.16
2017-04-17T00:47:20.243Z,926.21
2017-04-17T00:47:39.015Z,926.21
2017-04-17T00:47:58.447Z,926.2
2017-04-17T00:48:17.718Z,926.17
2017-04-17T00:48:37.039Z,926.18
2017-04-17T00:48:56.306Z,926.2
2017-04-17T00:49:15.600Z,926.23
2017-04-17T00:49:34.473Z,926.24
2017-04-17T00:49:53.731Z,926.25
2017-04-17T00:50:12.994Z,926.26
2017-04-17T00:50:32.387Z,926.23
2017-04-17T00:50:51.662Z,926.26
2017-04-17T00:51:10.923Z,926.26
2017-04-17T00:51:29.686Z,926.28
2017-04-17T00:51:49.176Z,926.3
2017-04-17T00:52:08.424Z,926.29
2017-04-17T00:52:27.661Z,926.28
2017-04-17T00:52:46.967Z,926.26
2017-04-17T00:53:06.421Z,926.29
2017-04-17T00:53:25.135Z,926.29
2017-04-17T00:53:44.377Z,926.28
2017-04-17T00:54:03.638Z,926.3
2017-04-17T00:54:22.407Z,926.3
2017-04-17T00:54:41.674Z,926.28
2017-04-17T00:55:00.915Z,926.3
2017-04-17T00:55:19.677Z,926.31
2017-04-17T00:55:38.943Z,926.33
2017-04-17T00:55:58.249Z,926.32
2017-04-17T00:56:17.520Z,926.3
2017-04-17T00:56:36.802Z,926.37
2017-04-17T00:56:56.104Z,926.3
2017-04-17T00:57:15.402Z,926.32
2017-04-17T00:57:34.182Z,926.33
2017-04-17T00:57:53.469Z,926.33
2017-04-17T00:58:12.730Z,926.39
2017-04-17T00:58:31.584Z,926.35
2017-04-17T00:58:50.856Z,926.42
2017-04-17T00:59:09.626Z,926.4
2017-04-17T00:59:28.888Z,926.42
2017-04-17T00:59:48.152Z,926.4
2017-04-17T01:00:07.437Z,926.41
2017-04-17T01:00:25.709Z,926.46
2017-04-17T01:00:44.948Z,926.43
2017-04-17T01:01:04.226Z,926.37
2017-04-17T01:01:23.486Z,926.4
2017-04-17T01:01:42.750Z,926.39
2017-04-17T01:02:02.144Z,926.41
2017-04-17T01:02:21.399Z,926.44
2017-04-17T01:02:40.666Z,926.44
2017-04-17T01:03:00.033Z,926.43
2017-04-17T01:03:19.272Z,926.45
2017-04-17T01:03:38.529Z,926.44
2017-04-17T01:03:57.792Z,926.42
2017-04-17T01:04:17.955Z,926.44
2017-04-17T01:04:37.228Z,926.44
2017-04-17T01:04:56.519Z,926.43
2017-04-17T01:05:15.789Z,926.41
2017-04-17T01:05:35.083Z,926.44
2017-04-17T01:05:54.377Z,926.4
2017-04-17T01:06:13.700Z,926.43
2017-04-17T01:06:32.960Z,926.47
2017-04-17T01:06:52.304Z,926.42
2017-04-17T01:07:11.040Z,926.43
2017-04-17T01:07:29.783Z,926.43
2017-04-17T01:07:49.042Z,926.4
2017-04-17T01:08:08.306Z,926.49
2017-04-17T01:08:27.080Z,926.49
2017-04-17T01:08:46.435Z,926.48
2017-04-17T01:09:05.728Z,926.5
2017-04-17T01:09:25.017Z,926.49
2017-04-17T01:09:43.789Z,926.54
2017-04-17T01:10:03.067Z,926.5
2017-04-17T01:10:21.847Z,926.5
2017-04-17T01:10:41.125Z,926.48
2017-04-17T01:10:59.916Z,926.48
2017-04-17T01:11:19.192Z,926.48
2017-04-17T01:11:38.674Z,926.49
2017-04-17T01:11:58.536Z,926.44
2017-04-17T01:12:17.939Z,926.46
2017-04-17T01:12:37.239Z,926.48
2017-04-17T01:12:56.538Z,926.44
2017-04-17T01:13:17.291Z,926.5
2017-04-17T01:13:36.609Z,926.49
2017-04-17T01:13:55.934Z,926.48
2017-04-17T01:14:15.687Z,926.49
2017-04-17T01:14:34.929Z,926.47
2017-04-17T01:14:54.182Z,926.51
2017-04-17T01:15:13.451Z,926.43
2017-04-17T01:15:32.722Z,926.49
2017-04-17T01:15:50.985Z,926.49
2017-04-17T01:16:09.708Z,926.44
2017-04-17T01:16:28.992Z,926.49
2017-04-17T01:16:48.262Z,926.45
2017-04-17T01:17:07.538Z,926.47
2017-04-17T01:17:26.257Z,926.5
2017-04-17T01:17:44.999Z,926.5
2017-04-17T01:18:04.385Z,926.47
2017-04-17T01:18:23.660Z,926.5
2017-04-17T01:18:42.943Z,926.52
2017-04-17T01:19:02.203Z,926.53
2017-04-17T01:19:20.458Z,926.5
2017-04-17T01:19:39.740Z,926.51
2017-04-17T01:19:59.020Z,926.44
2017-04-17T01:20:17.795Z,926.44
2017-04-17T01:20:37.084Z,926.41
2017-04-17T01:20:56.338Z,926.41
2017-04-17T01:21:15.615Z,926.44
2017-04-17T01:21:34.864Z,926.42
2017-04-17T01:21:54.158Z,926.43
2017-04-17T01:22:12.408Z,926.42
2017-04-17T01:22:31.670Z,926.43
2017-04-17T01:22:50.957Z,926.41
2017-04-17T01:23:10.613Z,926.43
2017-04-17T01:23:29.910Z,926.42
2017-04-17T01:23:49.179Z,926.41
2017-04-17T01:24:08.460Z,926.38
2017-04-17T01:24:27.732Z,926.39
2017-04-17T01:24:47.016Z,926.43
2017-04-17T01:25:06.266Z,926.39
2017-04-17T01:25:25.522Z,926.39
2017-04-17T01:25:44.801Z,926.37
2017-04-17T01:26:03.568Z,926.35
2017-04-17T01:26:22.842Z,926.38
2017-04-17T01:26:41.833Z,926.39
2017-04-17T01:27:01.084Z,926.36
2017-04-17T01:27:19.813Z,926.41
2017-04-17T01:27:39.081Z,926.41
2017-04-17T01:27:58.982Z,926.38
2017-04-17T01:28:18.286Z,926.39
2017-04-17T01:28:37.564Z,926.41
2017-04-17T01:28:56.889Z,926.4
2017-04-17T01:29:16.150Z,926.39
2017-04-17T01:29:34.883Z,926.41
2017-04-17T01:29:54.150Z,926.41
2017-04-17T01:30:13.406Z,926.46
2017-04-17T01:30:32.197Z,926.42
2017-04-17T01:30:50.964Z,926.37
2017-04-17T01:31:10.284Z,926.4
2017-04-17T01:31:29.559Z,926.39
2017-04-17T01:31:48.836Z,926.4
2017-04-17T01:32:08.074Z,926.46
2017-04-17T01:32:26.300Z,926.4
2017-04-17T01:32:45.610Z,926.39
2017-04-17T01:33:04.933Z,926.44
2017-04-17T01:33:24.201Z,926.4
2017-04-17T01:33:43.488Z,926.4
2017-04-17T01:34:02.751Z,926.38
2017-04-17T01:34:20.990Z,926.41
2017-04-17T01:34:40.266Z,926.4
2017-04-17T01:34:59.537Z,926.37
2017-04-17T01:35:18.319Z,926.42
2017-04-17T01:35:37.603Z,926.45
2017-04-17T01:35:56.866Z,926.43
2017-04-17T01:36:16.124Z,926.42
2017-04-17T01:36:35.420Z,926.45
2017-04-17T01:36:54.724Z,926.43
2017-04-17T01:37:13.497Z,926.44
2017-04-17T01:37:32.768Z,926.48
2017-04-17T01:37:52.049Z,926.49
2017-04-17T01:38:11.299Z,926.48
2017-04-17T01:38:30.580Z,926.49
2017-04-17T01:38:49.828Z,926.48
2017-04-17T01:39:09.346Z,926.45
2017-04-17T01:39:28.627Z,926.4
2017-04-17T01:39:47.915Z,926.43
2017-04-17T01:40:06.665Z,926.45
2017-04-17T01:40:25.963Z,926.46
2017-04-17T01:40:44.690Z,926.44
2017-04-17T01:41:03.956Z,926.46
2017-04-17T01:41:23.215Z,926.47
2017-04-17T01:41:41.963Z,926.47
2017-04-17T01:42:01.265Z,926.46
2017-04-17T01:42:20.621Z,926.46
2017-04-17T01:42:39.903Z,926.49
2017-04-17T01:42:59.254Z,926.51
2017-04-17T01:43:17.496Z,926.45
2017-04-17T01:43:36.960Z,926.47
2017-04-17T01:43:56.232Z,926.45
2017-04-17T01:44:15.007Z,926.45
2017-04-17T01:44:34.358Z,926.45
2017-04-17T01:44:53.588Z,926.48
2017-04-17T01:45:12.898Z,926.43
2017-04-17T01:45:32.153Z,926.4
2017-04-17T01:45:51.432Z,926.44
2017-04-17T01:46:10.704Z,926.4
2017-04-17T01:46:30.005Z,926.39
2017-04-17T01:46:49.476Z,926.38
2017-04-17T01:47:08.761Z,926.35
2017-04-17T01:47:27.532Z,926.38
2017-04-17T01:47:46.796Z,926.38
2017-04-17T01:48:06.171Z,926.36
2017-04-17T01:48:24.946Z,926.35
2017-04-17T01:48:44.211Z,926.35
2017-04-17T01:49:03.464Z,926.37
2017-04-17T01:49:22.719Z,926.38
2017-04-17T01:49:42.006Z,926.37
2017-04-17T01:50:01.297Z,926.4
2017-04-17T01:50:20.574Z,926.41
2017-04-17T01:50:39.850Z,926.37
2017-04-17T01:50:59.134Z,926.37
2017-04-17T01:51:18.079Z,926.34
2017-04-17T01:51:37.382Z,926.38
2017-04-17T01:51:56.139Z,926.37
2017-04-17T01:52:14.938Z,926.4
2017-04-17T01:52:34.249Z,926.4
2017-04-17T01:52:53.054Z,926.38
2017-04-17T01:53:12.796Z,926.39
2017-04-17T01:53:32.219Z,926.39
2017-04-17T01:53:51.463Z,926.41
2017-04-17T01:54:10.714Z,926.42
2017-04-17T01:54:29.993Z,926.48
2017-04-17T01:54:49.312Z,926.41
2017-04-17T01:55:08.082Z,926.46
2017-04-17T01:55:27.336Z,926.46
2017-04-17T01:55:46.613Z,926.53
2017-04-17T01:56:05.853Z,926.5
2017-04-17T01:56:24.617Z,926.52
2017-04-17T01:56:43.904Z,926.51
2017-04-17T01:57:03.156Z,926.5
2017-04-17T01:57:22.428Z,926.53
2017-04-17T01:57:41.683Z,926.53
2017-04-17T01:58:01.135Z,926.5
2017-04-17T01:58:20.437Z,926.48
2017-04-17T01:58:39.716Z,926.53
2017-04-17T01:58:58.974Z,926.5
2017-04-17T01:59:17.719Z,926.51
2017-04-17T01:59:37.034Z,926.53
2017-04-17T01:59:56.294Z,926.52
2017-04-17T02:00:15.036Z,926.49
2017-04-17T02:00:34.283Z,926.53
2017-04-17T02:00:53.567Z,926.46
2017-04-17T02:01:12.308Z,926.5
2017-04-17T02:01:31.588Z,926.5
2017-04-17T02:01:50.835Z,926.5
2017-04-17T02:02:09.623Z,926.47
2017-04-17T02:02:28.895Z,926.54
2017-04-17T02:02:48.148Z,926.52
2017-04-17T02:03:07.408Z,926.51
2017-04-17T02:03:25.676Z,926.49
2017-04-17T02:03:45.045Z,926.48
2017-04-17T02:04:04.321Z,926.48
2017-04-17T02:04:23.668Z,926.48
2017-04-17T02:04:42.938Z,926.51
2017-04-17T02:05:02.235Z,926.5
2017-04-17T02:05:21.526Z,926.49
2017-04-17T02:05:40.785Z,926.49
2017-04-17T02:06:00.153Z,926.54
2017-04-17T02:06:19.434Z,926.53
2017-04-17T02:06:38.701Z,926.56
2017-04-17T02:06:58.000Z,926.56
2017-04-17T02:07:17.262Z,926.58
2017-04-17T02:07:36.559Z,926.59
2017-04-17T02:07:55.867Z,926.63
2017-04-17T02:08:14.646Z,926.61
2017-04-17T02:08:33.924Z,926.63
2017-04-17T02:08:53.221Z,926.61
2017-04-17T02:09:12.482Z,926.63
2017-04-17T02:09:31.744Z,926.62
2017-04-17T02:09:50.968Z,926.59
2017-04-17T02:10:10.245Z,926.64
2017-04-17T02:10:29.538Z,926.61
2017-04-17T02:10:48.780Z,926.65
2017-04-17T02:11:08.028Z,926.65
2017-04-17T02:11:26.274Z,926.63
2017-04-17T02:11:45.541Z,926.64
2017-04-17T02:12:04.278Z,926.65
2017-04-17T02:12:23.022Z,926.62
2017-04-17T02:12:42.292Z,926.65
2017-04-17T02:13:01.635Z,926.63
2017-04-17T02:13:20.368Z,926.62
2017-04-17T02:13:39.700Z,926.65
2017-04-17T02:13:58.994Z,926.66
2017-04-17T02:14:17.781Z,926.6
2017-04-17T02:14:37.054Z,926.61
2017-04-17T02:14:55.809Z,926.6
2017-04-17T02:15:15.062Z,926.6
2017-04-17T02:15:34.328Z,926.54
2017-04-17T02:15:53.633Z,926.59
2017-04-17T02:16:13.139Z,926.55
2017-04-17T02:16:32.401Z,926.52
2017-04-17T02:16:51.176Z,926.51
2017-04-17T02:17:10.622Z,926.5
2017-04-17T02:17:29.929Z,926.52
2017-04-17T02:17:49.217Z,926.53
2017-04-17T02:18:08.495Z,926.56
2017-04-17T02:18:26.921Z,926.52
2017-04-17T02:18:46.168Z,926.47
2017-04-17T02:19:07.141Z,926.51
2017-04-17T02:19:25.914Z,926.49
2017-04-17T02:19:45.219Z,926.48
2017-04-17T02:20:04.514Z,926.49
2017-04-17T02:20:23.257Z,926.53
2017-04-17T02:20:42.516Z,926.47
2017-04-17T02:21:01.806Z,926.5
2017-04-17T02:21:20.563Z,926.5
2017-04-17T02:21:39.929Z,926.48
2017-04-17T02:21:59.223Z,926.48
2017-04-17T02:22:18.469Z,926.48
2017-04-17T02:22:37.720Z,926.45
2017-04-17T02:22:57.071Z,926.45
2017-04-17T02:23:15.833Z,926.44
2017-04-17T02:23:34.613Z,926.44
2017-04-17T02:23:54.050Z,926.48
2017-04-17T02:24:13.319Z,926.44
2017-04-17T02:24:32.100Z,926.46
2017-04-17T02:24:51.363Z,926.45
2017-04-17T02:25:10.631Z,926.43
2017-04-17T02:25:28.880Z,926.38
2017-04-17T02:25:48.167Z,926.43
2017-04-17T02:26:07.432Z,926.44
2017-04-17T02:26:26.191Z,926.37
2017-04-17T02:26:45.463Z,926.39
2017-04-17T02:27:04.846Z,926.32
2017-04-17T02:27:23.630Z,926.35
2017-04-17T02:27:43.118Z,926.33
2017-04-17T02:28:03.080Z,926.32
2017-04-17T02:28:21.817Z,926.35
2017-04-17T02:28:41.132Z,926.29
2017-04-17T02:29:00.403Z,926.26
2017-04-17T02:29:19.678Z,926.28
2017-04-17T02:29:39.038Z,926.25
2017-04-17T02:29:58.273Z,926.27
2017-04-17T02:30:17.565Z,926.25
2017-04-17T02:30:36.414Z,926.24
2017-04-17T02:30:55.279Z,926.24
2017-04-17T02:31:14.642Z,926.18
2017-04-17T02:31:33.413Z,926.26
2017-04-17T02:31:52.776Z,926.21
2017-04-17T02:32:11.623Z,926.24
2017-04-17T02:32:30.399Z,926.22
2017-04-17T02:32:49.655Z,926.21
2017-04-17T02:33:08.966Z,926.22
2017-04-17T02:33:28.295Z,926.27
2017-04-17T02:33:47.570Z,926.2
2017-04-17T02:34:06.950Z,926.19
2017-04-17T02:34:26.204Z,926.19
2017-04-17T02:34:44.946Z,926.21
2017-04-17T02:35:04.251Z,926.28
2017-04-17T02:35:24.009Z,926.26
2017-04-17T02:35:43.303Z,926.25
2017-04-17T02:36:02.787Z,926.23
2017-04-17T02:36:21.560Z,926.28
2017-04-17T02:36:40.352Z,926.25
2017-04-17T02:36:59.646Z,926.27
2017-04-17T02:37:18.954Z,926.3
2017-04-17T02:37:38.252Z,926.28
2017-04-17T02:37:57.598Z,926.29
2017-04-17T02:38:16.477Z,926.33
2017-04-17T02:38:35.767Z,926.36
2017-04-17T02:38:55.544Z,926.3
2017-04-17T02:39:14.310Z,926.31
2017-04-17T02:39:33.597Z,926.31
2017-04-17T02:39:52.894Z,926.34
2017-04-17T02:40:12.406Z,926.29
2017-04-17T02:40:30.635Z,926.32
2017-04-17T02:40:50.074Z,926.35
2017-04-17T02:41:09.291Z,926.3
2017-04-17T02:41:28.526Z,926.31
2017-04-17T02:41:47.756Z,926.3
2017-04-17T02:42:07.205Z,926.27
2017-04-17T02:42:25.979Z,926.27
2017-04-17T02:42:44.775Z,926.27
2017-04-17T02:43:04.134Z,926.27
2017-04-17T02:43:23.423Z,926.24
2017-04-17T02:43:42.643Z,926.24
2017-04-17T02:44:01.920Z,926.2
2017-04-17T02:44:21.248Z,926.21
2017-04-17T02:44:40.560Z,926.2
2017-04-17T02:44:59.881Z,926.19
2017-04-17T02:45:19.175Z,926.19
2017-04-17T02:45:38.464Z,926.19
2017-04-17T02:45:57.757Z,926.18
2017-04-17T02:46:16.994Z,926.15
2017-04-17T02:46:36.287Z,926.12
2017-04-17T02:46:55.551Z,926.16
2017-04-17T02:47:14.808Z,926.17
2017-04-17T02:47:34.068Z,926.17
2017-04-17T02:47:52.843Z,926.18
2017-04-17T02:48:12.138Z,926.14
2017-04-17T02:48:31.376Z,926.14
2017-04-17T02:48:50.683Z,926.19
2017-04-17T02:49:10.126Z,926.2
2017-04-17T02:49:28.958Z,926.19
2017-04-17T02:49:47.791Z,926.2
2017-04-17T02:50:07.078Z,926.21
2017-04-17T02:50:26.740Z,926.21
2017-04-17T02:50:46.056Z,926.21
2017-04-17T02:51:05.461Z,926.22
2017-04-17T02:51:24.216Z,926.22
2017-04-17T02:51:43.474Z,926.21
2017-04-17T02:52:02.773Z,926.2
2017-04-17T02:52:21.548Z,926.19
2017-04-17T02:52:40.855Z,926.23
2017-04-17T02:53:00.141Z,926.23
2017-04-17T02:53:18.913Z,926.25
2017-04-17T02:53:38.176Z,926.26
2017-04-17T02:53:57.431Z,926.26
2017-04-17T02:54:16.216Z,926.26
2017-04-17T02:54:35.468Z,926.29
2017-04-17T02:54:54.718Z,926.29
2017-04-17T02:55:14.026Z,926.32
2017-04-17T02:55:33.399Z,926.25
2017-04-17T02:55:52.662Z,926.28
2017-04-17T02:56:11.919Z,926.27
2017-04-17T02:56:31.195Z,926.31
2017-04-17T02:56:50.551Z,926.33
2017-04-17T02:57:09.309Z,926.34
2017-04-17T02:57:28.586Z,926.28
2017-04-17T02:57:47.851Z,926.27
2017-04-17T02:58:07.176Z,926.28
2017-04-17T02:58:26.488Z,926.27
2017-04-17T02:58:45.747Z,926.26
2017-04-17T02:59:05.030Z,926.28
2017-04-17T02:59:24.301Z,926.28
2017-04-17T02:59:43.587Z,926.28
2017-04-17T03:00:02.834Z,926.34
2017-04-17T03:00:21.575Z,926.33
2017-04-17T03:00:40.868Z,926.33
2017-04-17T03:01:00.127Z,926.28
2017-04-17T03:01:18.876Z,926.29
2017-04-17T03:01:37.635Z,926.27
2017-04-17T03:01:56.927Z,926.28
2017-04-17T03:02:15.684Z,926.28
2017-04-17T03:02:34.977Z,926.27
2017-04-17T03:02:54.261Z,926.29
2017-04-17T03:03:13.641Z,926.29
2017-04-17T03:03:32.424Z,926.32
2017-04-17T03:03:51.684Z,926.28
2017-04-17T03:04:10.971Z,926.3
2017-04-17T03:04:30.264Z,926.27
2017-04-17T03:04:49.533Z,926.27
2017-04-17T03:05:08.804Z,926.28
2017-04-17T03:05:27.575Z,926.24
2017-04-17T03:05:46.859Z,926.25
2017-04-17T03:06:06.144Z,926.25
2017-04-17T03:06:25.379Z,926.22
2017-04-17T03:06:44.848Z,926.22
2017-04-17T03:07:04.136Z,926.22
2017-04-17T03:07:22.898Z,926.19
2017-04-17T03:07:41.670Z,926.2
2017-04-17T03:08:00.979Z,926.18
2017-04-17T03:08:20.241Z,926.19
2017-04-17T03:08:39.604Z,926.21
2017-04-17T03:08:58.963Z,926.19
2017-04-17T03:09:18.240Z,926.19
2017-04-17T03:09:37.488Z,926.18
2017-04-17T03:09:56.730Z,926.19
2017-04-17T03:10:16.022Z,926.15
2017-04-17T03:10:35.300Z,926.16
2017-04-17T03:10:54.077Z,926.16
2017-04-17T03:11:13.368Z,926.16
2017-04-17T03:11:32.644Z,926.16
2017-04-17T03:11:51.928Z,926.15
2017-04-17T03:12:10.722Z,926.1
2017-04-17T03:12:30.004Z,926.12
2017-04-17T03:12:49.271Z,926.14
2017-04-17T03:13:08.565Z,926.12
2017-04-17T03:13:27.825Z,926.07
2017-04-17T03:13:47.138Z,926.13
2017-04-17T03:14:06.399Z,926.11
2017-04-17T03:14:25.689Z,926.12
2017-04-17T03:14:44.978Z,926.08
2017-04-17T03:15:04.287Z,926.07
2017-04-17T03:15:22.996Z,926.08
2017-04-17T03:15:41.746Z,926.06
2017-04-17T03:16:00.524Z,926.07
2017-04-17T03:16:19.255Z,926.08
2017-04-17T03:16:38.519Z,926.08
2017-04-17T03:16:58.210Z,926.05
2017-04-17T03:17:17.491Z,926.06
2017-04-17T03:17:36.777Z,926.04
2017-04-17T03:17:56.098Z,926.07
2017-04-17T03:18:15.396Z,926.07
2017-04-17T03:18:34.161Z,926.05
2017-04-17T03:18:53.426Z,926.01
2017-04-17T03:19:12.706Z,926.02
2017-04-17T03:19:31.959Z,926.06
2017-04-17T03:19:51.233Z,926.11
2017-04-17T03:20:10.530Z,926.09
2017-04-17T03:20:29.796Z,926.06
2017-04-17T03:20:49.064Z,926.12
2017-04-17T03:21:07.827Z,926.11
2017-04-17T03:21:26.078Z,926.1
2017-04-17T03:21:45.359Z,926.13
2017-04-17T03:22:04.639Z,926.15
2017-04-17T03:22:23.377Z,926.16
2017-04-17T03:22:42.755Z,926.12
2017-04-17T03:23:02.109Z,926.14
2017-04-17T03:23:20.866Z,926.15
2017-04-17T03:23:40.156Z,926.12
2017-04-17T03:23:59.427Z,926.14
2017-04-17T03:24:18.730Z,926.13
2017-04-17T03:24:37.498Z,926.16
2017-04-17T03:24:56.765Z,926.12
2017-04-17T03:25:15.506Z,926.15
2017-04-17T03:25:34.770Z,926.13
2017-04-17T03:25:54.045Z,926.16
2017-04-17T03:26:13.330Z,926.15
2017-04-17T03:26:32.603Z,926.13
2017-04-17T03:26:51.883Z,926.15
2017-04-17T03:27:11.152Z,926.14
2017-04-17T03:27:29.937Z,926.14
2017-04-17T03:27:49.213Z,926.14
2017-04-17T03:28:08.484Z,926.13
2017-04-17T03:28:27.256Z,926.13
2017-04-17T03:28:46.502Z,926.16
2017-04-17T03:29:05.805Z,926.15
2017-04-17T03:29:25.056Z,926.16
2017-04-17T03:29:44.333Z,926.17
2017-04-17T03:30:03.608Z,926.14
2017-04-17T03:30:22.960Z,926.15
2017-04-17T03:30:42.216Z,926.14
2017-04-17T03:31:00.979Z,926.17
2017-04-17T03:31:20.262Z,926.14
2017-04-17T03:31:39.728Z,926.16
2017-04-17T03:31:59.012Z,926.18
2017-04-17T03:32:17.764Z,926.16
2017-04-17T03:32:37.137Z,926.18
2017-04-17T03:32:55.907Z,926.18
2017-04-17T03:33:14.261Z,926.19
2017-04-17T03:33:33.554Z,926.11
2017-04-17T03:33:53.008Z,926.13
2017-04-17T03:34:11.753Z,926.14
2017-04-17T03:34:31.029Z,926.17
2017-04-17T03:34:50.307Z,926.15
2017-04-17T03:35:09.591Z,926.17
2017-04-17T03:35:28.334Z,926.16
2017-04-17T03:35:47.597Z,926.13
2017-04-17T03:36:06.841Z,926.1
2017-04-17T03:36:25.602Z,926.11
2017-04-17T03:36:44.856Z,926.09
2017-04-17T03:37:04.138Z,926.09
2017-04-17T03:37:23.412Z,926.05
2017-04-17T03:37:42.681Z,926.06
2017-04-17T03:38:02.057Z,926.08
2017-04-17T03:38:21.331Z,926.02
2017-04-17T03:38:40.625Z,926.06
2017-04-17T03:38:59.923Z,926.02
2017-04-17T03:39:19.173Z,926.02
2017-04-17T03:39:38.486Z,926
2017-04-17T03:39:57.742Z,926.03
2017-04-17T03:40:17.042Z,926.02
2017-04-17T03:40:36.413Z,926.04
2017-04-17T03:40:55.655Z,926
2017-04-17T03:41:14.948Z,926.05
2017-04-17T03:41:34.221Z,926.02
2017-04-17T03:41:53.511Z,926.03
2017-04-17T03:42:12.807Z,926.05
2017-04-17T03:42:32.085Z,926.04
2017-04-17T03:42:51.503Z,926.04
2017-04-17T03:43:10.264Z,926.04
2017-04-17T03:43:29.573Z,926.03
2017-04-17T03:43:48.833Z,926.04
2017-04-17T03:44:07.606Z,926.02
2017-04-17T03:44:26.896Z,926
2017-04-17T03:44:46.155Z,926.04
2017-04-17T03:45:05.626Z,926.01
2017-04-17T03:45:24.907Z,926
2017-04-17T03:45:43.659Z,926.01
2017-04-17T03:46:02.922Z,926.01
2017-04-17T03:46:21.656Z,926.03
2017-04-17T03:46:40.918Z,926.03
2017-04-17T03:47:00.199Z,926.04
2017-04-17T03:47:19.143Z,926.07
2017-04-17T03:47:38.431Z,926.06
2017-04-17T03:47:57.687Z,926.1
2017-04-17T03:48:16.986Z,926.12
2017-04-17T03:48:36.246Z,926.09
2017-04-17T03:48:55.483Z,926.09
2017-04-17T03:49:14.230Z,926.15
2017-04-17T03:49:33.604Z,926.16
2017-04-17T03:49:52.839Z,926.14
2017-04-17T03:50:11.593Z,926.11
2017-04-17T03:50:30.872Z,926.09
2017-04-17T03:50:50.119Z,926.12
2017-04-17T03:51:09.372Z,926.07
2017-04-17T03:51:28.608Z,926.13
2017-04-17T03:51:47.848Z,926.09
2017-04-17T03:52:07.095Z,926.1
2017-04-17T03:52:26.390Z,926.09
2017-04-17T03:52:45.653Z,926.03
2017-04-17T03:53:05.145Z,926.06
2017-04-17T03:53:24.458Z,926.08
2017-04-17T03:53:43.727Z,926.04
2017-04-17T03:54:03.232Z,926.06
2017-04-17T03:54:22.023Z,926.02
2017-04-17T03:54:41.288Z,926.03
2017-04-17T03:55:00.591Z,926.07
2017-04-17T03:55:20.082Z,926.02
2017-04-17T03:55:39.382Z,926.06
2017-04-17T03:55:58.683Z,926.05
2017-04-17T03:56:17.442Z,926.05
2017-04-17T03:56:36.686Z,925.99
2017-04-17T03:56:55.955Z,926.02
2017-04-17T03:57:15.209Z,926.03
2017-04-17T03:57:34.516Z,926
2017-04-17T03:57:53.803Z,925.99
2017-04-17T03:58:13.057Z,925.98
2017-04-17T03:58:32.335Z,926
2017-04-17T03:58:51.615Z,925.95
2017-04-17T03:59:10.880Z,925.93
2017-04-17T03:59:30.097Z,925.95
2017-04-17T03:59:49.387Z,925.94
2017-04-17T04:00:08.666Z,925.91
2017-04-17T04:00:27.923Z,925.92